FLI201 LEAL-EKVG
Flight info
| Callsign | FLI201 |
|---|---|
| Flight time | N/A |
| Altitude | 34000 |
| Route | VLC DCT GIROM/N0444F360 DCT AGN DCT SECHE DCT UVELI DCT CNA DCT TUPAR UY120 AKIKI UN867 VASUX DCT TNT UN57 POL UN601 TLA DCT NALAN DCT ROBUR |
| Aircraft | A320/M-SDE3FGHIRWY/LB1 |
Departure
| Time | 2026-05-07 14:21 |
|---|---|
| Airport | Alicante-Elche Miguel Hernández Airport (LEAL) |
Arrival
| Time | N/A |
|---|---|
| Airport | Vágar Airport (EKVG) |
| Time | Latitude | Longitude | Altitude | Speed | Heading |
|---|---|---|---|---|---|
| 2026-05-07 14:01 | 38.28770 | -0.54998 | 94 ft | 0 kts | 279° |
| 2026-05-07 14:11 | 38.28769 | -0.54998 | 94 ft | 0 kts | 280° |
| 2026-05-07 14:11 | 38.28763 | -0.54958 | 90 ft | 4 kts | 278° |
| 2026-05-07 14:11 | 38.28760 | -0.54937 | 89 ft | 3 kts | 276° |
| 2026-05-07 14:11 | 38.28759 | -0.54917 | 89 ft | 2 kts | 225° |
| 2026-05-07 14:12 | 38.28769 | -0.54911 | 89 ft | 3 kts | 170° |
| 2026-05-07 14:12 | 38.28784 | -0.54910 | 90 ft | 0 kts | 186° |
| 2026-05-07 14:15 | 38.28783 | -0.54911 | 90 ft | 1 kts | 186° |
| 2026-05-07 14:15 | 38.28726 | -0.54921 | 89 ft | 15 kts | 188° |
| 2026-05-07 14:16 | 38.28579 | -0.54947 | 89 ft | 27 kts | 191° |
| 2026-05-07 14:16 | 38.28425 | -0.55011 | 88 ft | 16 kts | 251° |
| 2026-05-07 14:16 | 38.28408 | -0.55119 | 90 ft | 12 kts | 239° |
| 2026-05-07 14:16 | 38.28339 | -0.55245 | 87 ft | 23 kts | 237° |
| 2026-05-07 14:17 | 38.28341 | -0.55431 | 93 ft | 20 kts | 281° |
| 2026-05-07 14:17 | 38.28364 | -0.55594 | 96 ft | 19 kts | 279° |
| 2026-05-07 14:17 | 38.28390 | -0.55774 | 97 ft | 22 kts | 281° |
| 2026-05-07 14:17 | 38.28418 | -0.55980 | 97 ft | 25 kts | 277° |
| 2026-05-07 14:18 | 38.28448 | -0.56209 | 99 ft | 27 kts | 281° |
| 2026-05-07 14:18 | 38.28481 | -0.56433 | 109 ft | 25 kts | 281° |
| 2026-05-07 14:18 | 38.28509 | -0.56644 | 118 ft | 24 kts | 279° |
| 2026-05-07 14:18 | 38.28540 | -0.56852 | 127 ft | 26 kts | 281° |
| 2026-05-07 14:19 | 38.28576 | -0.57115 | 139 ft | 34 kts | 279° |
| 2026-05-07 14:19 | 38.28616 | -0.57403 | 151 ft | 23 kts | 281° |
| 2026-05-07 14:19 | 38.28537 | -0.57512 | 152 ft | 19 kts | 195° |
| 2026-05-07 14:19 | 38.28447 | -0.57454 | 153 ft | 12 kts | 93° |
| 2026-05-07 14:20 | 38.28437 | -0.57389 | 151 ft | 0 kts | 102° |
| 2026-05-07 14:20 | 38.28436 | -0.57387 | 151 ft | 3 kts | 101° |
| 2026-05-07 14:20 | 38.28396 | -0.57128 | 143 ft | 67 kts | 100° |
| 2026-05-07 14:20 | 38.28276 | -0.56247 | 116 ft | 130 kts | 100° |
| 2026-05-07 14:21 | 38.28083 | -0.54875 | 212 ft | 176 kts | 100° |
| 2026-05-07 14:21 | 38.27842 | -0.53338 | 930 ft | 183 kts | 102° |
| 2026-05-07 14:21 | 38.27576 | -0.51689 | 1633 ft | 196 kts | 101° |
| 2026-05-07 14:21 | 38.27430 | -0.49929 | 2247 ft | 208 kts | 86° |
| 2026-05-07 14:22 | 38.27592 | -0.48014 | 2524 ft | 226 kts | 82° |
| 2026-05-07 14:22 | 38.27825 | -0.45931 | 2825 ft | 249 kts | 82° |
| 2026-05-07 14:22 | 38.28086 | -0.43666 | 3315 ft | 264 kts | 80° |
| 2026-05-07 14:22 | 38.28735 | -0.41475 | 4039 ft | 269 kts | 54° |
| 2026-05-07 14:23 | 38.29922 | -0.39626 | 4830 ft | 271 kts | 47° |
| 2026-05-07 14:23 | 38.31195 | -0.37843 | 5617 ft | 274 kts | 46° |
| 2026-05-07 14:23 | 38.32493 | -0.36047 | 6387 ft | 277 kts | 46° |
| 2026-05-07 14:23 | 38.33809 | -0.34231 | 7134 ft | 280 kts | 46° |
| 2026-05-07 14:24 | 38.35165 | -0.32427 | 7872 ft | 283 kts | 39° |
| 2026-05-07 14:24 | 38.36863 | -0.31183 | 8560 ft | 285 kts | 16° |
| 2026-05-07 14:24 | 38.38826 | -0.30910 | 9259 ft | 286 kts | 353° |
| 2026-05-07 14:24 | 38.40800 | -0.31200 | 9963 ft | 288 kts | 352° |
| 2026-05-07 14:25 | 38.42847 | -0.31523 | 10300 ft | 306 kts | 352° |
| 2026-05-07 14:25 | 38.45043 | -0.31878 | 10456 ft | 329 kts | 352° |
| 2026-05-07 14:25 | 38.47355 | -0.32250 | 10901 ft | 339 kts | 352° |
| 2026-05-07 14:25 | 38.49717 | -0.32628 | 11518 ft | 344 kts | 352° |
| 2026-05-07 14:26 | 38.52106 | -0.33011 | 12148 ft | 348 kts | 352° |
| 2026-05-07 14:26 | 38.54519 | -0.33395 | 12773 ft | 352 kts | 352° |
| 2026-05-07 14:26 | 38.56963 | -0.33778 | 13389 ft | 355 kts | 352° |
| 2026-05-07 14:26 | 38.59427 | -0.34159 | 13971 ft | 359 kts | 352° |
| 2026-05-07 14:27 | 38.61917 | -0.34543 | 14553 ft | 362 kts | 352° |
| 2026-05-07 14:27 | 38.64432 | -0.34933 | 15115 ft | 366 kts | 352° |
| 2026-05-07 14:27 | 38.66975 | -0.35329 | 15667 ft | 369 kts | 352° |
| 2026-05-07 14:27 | 38.69538 | -0.35730 | 16244 ft | 372 kts | 352° |
| 2026-05-07 14:28 | 38.72114 | -0.36136 | 16804 ft | 374 kts | 352° |
| 2026-05-07 14:28 | 38.74710 | -0.36549 | 17320 ft | 378 kts | 352° |
| 2026-05-07 14:28 | 38.77327 | -0.36965 | 17846 ft | 380 kts | 352° |
| 2026-05-07 14:28 | 38.79960 | -0.37384 | 18383 ft | 382 kts | 352° |
| 2026-05-07 14:29 | 38.82610 | -0.37802 | 18892 ft | 385 kts | 352° |
| 2026-05-07 14:29 | 38.85278 | -0.38223 | 19373 ft | 388 kts | 352° |
| 2026-05-07 14:29 | 38.87936 | -0.38642 | 19869 ft | 391 kts | 352° |
| 2026-05-07 14:29 | 38.90676 | -0.39074 | 20359 ft | 393 kts | 352° |
| 2026-05-07 14:30 | 38.93365 | -0.39497 | 20839 ft | 396 kts | 352° |
| 2026-05-07 14:30 | 38.96107 | -0.39927 | 21304 ft | 398 kts | 352° |
| 2026-05-07 14:30 | 38.98870 | -0.40365 | 21749 ft | 401 kts | 352° |
| 2026-05-07 14:30 | 39.01648 | -0.40809 | 22187 ft | 404 kts | 352° |
| 2026-05-07 14:31 | 39.04447 | -0.41255 | 22620 ft | 406 kts | 352° |
| 2026-05-07 14:31 | 39.07260 | -0.41701 | 23034 ft | 408 kts | 352° |
| 2026-05-07 14:31 | 39.10089 | -0.42146 | 23430 ft | 411 kts | 352° |
| 2026-05-07 14:31 | 39.12938 | -0.42596 | 23819 ft | 413 kts | 352° |
| 2026-05-07 14:32 | 39.15796 | -0.43050 | 24196 ft | 415 kts | 352° |
| 2026-05-07 14:32 | 39.18670 | -0.43509 | 24558 ft | 417 kts | 352° |
| 2026-05-07 14:32 | 39.21559 | -0.43974 | 24903 ft | 420 kts | 352° |
| 2026-05-07 14:32 | 39.23478 | -0.44281 | 25124 ft | 421 kts | 352° |
| 2026-05-07 14:33 | 39.26369 | -0.44746 | 25446 ft | 423 kts | 352° |
| 2026-05-07 14:33 | 39.29323 | -0.45224 | 25767 ft | 425 kts | 352° |
| 2026-05-07 14:33 | 39.32265 | -0.45701 | 26078 ft | 427 kts | 352° |